sensor_id;sensor_type;location;lat;lon;timestamp;P1;durP1;ratioP1;P2;durP2;ratioP2
77010;SDS011;65945;53.148;17.956;2023-11-21T00:00:47;12.10;;;7.50;;
77010;SDS011;65945;53.148;17.956;2023-11-21T00:03:34;11.30;;;7.10;;
77010;SDS011;65945;53.148;17.956;2023-11-21T00:06:00;12.60;;;7.10;;
77010;SDS011;65945;53.148;17.956;2023-11-21T00:08:28;8.60;;;4.50;;
77010;SDS011;65945;53.148;17.956;2023-11-21T00:10:55;12.80;;;6.60;;
77010;SDS011;65945;53.148;17.956;2023-11-21T00:13:21;10.80;;;6.80;;
77010;SDS011;65945;53.148;17.956;2023-11-21T00:15:48;10.30;;;5.30;;
77010;SDS011;65945;53.148;17.956;2023-11-21T00:18:15;11.60;;;6.60;;
77010;SDS011;65945;53.148;17.956;2023-11-21T00:20:43;9.80;;;5.70;;
77010;SDS011;65945;53.148;17.956;2023-11-21T00:23:10;8.00;;;4.80;;
77010;SDS011;65945;53.148;17.956;2023-11-21T00:25:36;11.70;;;6.60;;
77010;SDS011;65945;53.148;17.956;2023-11-21T00:28:03;13.20;;;7.10;;
77010;SDS011;65945;53.148;17.956;2023-11-21T00:30:30;11.90;;;7.10;;
77010;SDS011;65945;53.148;17.956;2023-11-21T00:32:57;11.10;;;5.20;;
77010;SDS011;65945;53.148;17.956;2023-11-21T00:35:23;8.00;;;5.20;;
77010;SDS011;65945;53.148;17.956;2023-11-21T00:37:50;9.30;;;4.90;;
77010;SDS011;65945;53.148;17.956;2023-11-21T00:40:17;11.40;;;6.40;;
77010;SDS011;65945;53.148;17.956;2023-11-21T00:42:47;10.40;;;6.00;;
77010;SDS011;65945;53.148;17.956;2023-11-21T00:45:14;10.70;;;5.20;;
77010;SDS011;65945;53.148;17.956;2023-11-21T00:47:41;9.70;;;6.00;;
77010;SDS011;65945;53.148;17.956;2023-11-21T00:50:08;11.10;;;6.80;;
77010;SDS011;65945;53.148;17.956;2023-11-21T00:52:35;12.20;;;6.70;;
77010;SDS011;65945;53.148;17.956;2023-11-21T00:55:02;9.50;;;5.80;;
77010;SDS011;65945;53.148;17.956;2023-11-21T00:57:31;9.50;;;5.40;;
77010;SDS011;65945;53.148;17.956;2023-11-21T00:59:57;11.60;;;6.10;;
77010;SDS011;65945;53.148;17.956;2023-11-21T01:02:24;11.00;;;5.80;;
77010;SDS011;65945;53.148;17.956;2023-11-21T01:04:51;9.00;;;5.50;;
77010;SDS011;65945;53.148;17.956;2023-11-21T01:07:18;10.60;;;5.90;;
77010;SDS011;65945;53.148;17.956;2023-11-21T01:09:46;9.20;;;5.70;;
77010;SDS011;65945;53.148;17.956;2023-11-21T01:12:13;9.70;;;5.80;;
77010;SDS011;65945;53.148;17.956;2023-11-21T01:14:40;9.50;;;5.30;;
77010;SDS011;65945;53.148;17.956;2023-11-21T01:17:07;10.70;;;6.20;;
77010;SDS011;65945;53.148;17.956;2023-11-21T01:19:33;13.60;;;7.00;;
77010;SDS011;65945;53.148;17.956;2023-11-21T01:22:00;10.20;;;5.80;;
77010;SDS011;65945;53.148;17.956;2023-11-21T01:24:27;14.10;;;7.30;;
77010;SDS011;65945;53.148;17.956;2023-11-21T01:26:53;11.70;;;7.20;;
77010;SDS011;65945;53.148;17.956;2023-11-21T01:29:20;13.30;;;6.40;;
77010;SDS011;65945;53.148;17.956;2023-11-21T01:31:46;13.10;;;7.80;;
77010;SDS011;65945;53.148;17.956;2023-11-21T01:34:13;14.40;;;7.90;;
77010;SDS011;65945;53.148;17.956;2023-11-21T01:36:40;12.80;;;7.40;;
77010;SDS011;65945;53.148;17.956;2023-11-21T01:39:07;12.80;;;6.40;;
77010;SDS011;65945;53.148;17.956;2023-11-21T01:41:35;13.50;;;7.90;;
77010;SDS011;65945;53.148;17.956;2023-11-21T01:44:02;10.60;;;5.40;;
77010;SDS011;65945;53.148;17.956;2023-11-21T01:46:29;10.60;;;5.90;;
77010;SDS011;65945;53.148;17.956;2023-11-21T01:48:56;9.90;;;5.10;;
77010;SDS011;65945;53.148;17.956;2023-11-21T01:51:23;19.60;;;7.70;;
77010;SDS011;65945;53.148;17.956;2023-11-21T01:53:50;12.80;;;7.40;;
77010;SDS011;65945;53.148;17.956;2023-11-21T01:56:16;11.90;;;6.00;;
77010;SDS011;65945;53.148;17.956;2023-11-21T01:58:44;11.20;;;6.60;;
77010;SDS011;65945;53.148;17.956;2023-11-21T02:01:13;12.40;;;6.70;;
77010;SDS011;65945;53.148;17.956;2023-11-21T02:03:40;12.70;;;7.10;;
77010;SDS011;65945;53.148;17.956;2023-11-21T02:06:08;9.00;;;4.90;;
77010;SDS011;65945;53.148;17.956;2023-11-21T02:08:35;12.90;;;6.00;;
77010;SDS011;65945;53.148;17.956;2023-11-21T02:11:04;9.00;;;5.30;;
77010;SDS011;65945;53.148;17.956;2023-11-21T02:13:31;13.30;;;7.10;;
77010;SDS011;65945;53.148;17.956;2023-11-21T02:15:59;11.70;;;5.80;;
77010;SDS011;65945;53.148;17.956;2023-11-21T02:18:26;8.60;;;5.10;;
77010;SDS011;65945;53.148;17.956;2023-11-21T02:20:55;11.20;;;6.30;;
77010;SDS011;65945;53.148;17.956;2023-11-21T02:23:22;10.80;;;6.70;;
77010;SDS011;65945;53.148;17.956;2023-11-21T02:25:49;13.50;;;7.60;;
77010;SDS011;65945;53.148;17.956;2023-11-21T02:28:16;11.50;;;7.00;;
77010;SDS011;65945;53.148;17.956;2023-11-21T02:30:52;12.10;;;7.30;;
77010;SDS011;65945;53.148;17.956;2023-11-21T02:33:23;13.00;;;6.60;;
77010;SDS011;65945;53.148;17.956;2023-11-21T02:35:49;11.00;;;6.00;;
77010;SDS011;65945;53.148;17.956;2023-11-21T02:38:17;16.00;;;7.80;;
77010;SDS011;65945;53.148;17.956;2023-11-21T02:40:44;12.80;;;6.40;;
77010;SDS011;65945;53.148;17.956;2023-11-21T02:43:10;15.50;;;8.60;;
77010;SDS011;65945;53.148;17.956;2023-11-21T02:45:37;12.10;;;5.90;;
77010;SDS011;65945;53.148;17.956;2023-11-21T02:48:04;14.90;;;7.50;;
77010;SDS011;65945;53.148;17.956;2023-11-21T02:50:32;15.40;;;8.40;;
77010;SDS011;65945;53.148;17.956;2023-11-21T02:52:59;14.20;;;8.00;;
77010;SDS011;65945;53.148;17.956;2023-11-21T02:55:27;16.60;;;8.70;;
77010;SDS011;65945;53.148;17.956;2023-11-21T02:57:54;16.90;;;9.50;;
77010;SDS011;65945;53.148;17.956;2023-11-21T03:00:22;13.80;;;7.80;;
77010;SDS011;65945;53.148;17.956;2023-11-21T03:02:50;12.80;;;7.30;;
77010;SDS011;65945;53.148;17.956;2023-11-21T03:05:17;12.00;;;7.10;;
77010;SDS011;65945;53.148;17.956;2023-11-21T03:07:44;18.50;;;8.20;;
77010;SDS011;65945;53.148;17.956;2023-11-21T03:10:10;19.80;;;7.30;;
77010;SDS011;65945;53.148;17.956;2023-11-21T03:12:37;13.10;;;6.30;;
77010;SDS011;65945;53.148;17.956;2023-11-21T03:15:05;14.20;;;7.50;;
77010;SDS011;65945;53.148;17.956;2023-11-21T03:17:32;12.60;;;6.90;;
77010;SDS011;65945;53.148;17.956;2023-11-21T03:20:03;12.80;;;6.50;;
77010;SDS011;65945;53.148;17.956;2023-11-21T03:22:30;18.40;;;9.10;;
77010;SDS011;65945;53.148;17.956;2023-11-21T03:24:58;15.20;;;7.80;;
77010;SDS011;65945;53.148;17.956;2023-11-21T03:27:25;18.90;;;10.50;;
77010;SDS011;65945;53.148;17.956;2023-11-21T03:29:52;17.50;;;8.00;;
77010;SDS011;65945;53.148;17.956;2023-11-21T03:32:18;21.10;;;11.00;;
77010;SDS011;65945;53.148;17.956;2023-11-21T03:34:55;15.00;;;7.20;;
77010;SDS011;65945;53.148;17.956;2023-11-21T03:37:22;16.40;;;10.00;;
77010;SDS011;65945;53.148;17.956;2023-11-21T03:39:50;15.00;;;7.60;;
77010;SDS011;65945;53.148;17.956;2023-11-21T03:42:17;15.90;;;8.40;;
77010;SDS011;65945;53.148;17.956;2023-11-21T03:44:43;21.70;;;11.10;;
77010;SDS011;65945;53.148;17.956;2023-11-21T03:47:10;13.60;;;7.10;;
77010;SDS011;65945;53.148;17.956;2023-11-21T03:49:37;16.00;;;7.90;;
77010;SDS011;65945;53.148;17.956;2023-11-21T03:52:04;12.60;;;7.10;;
77010;SDS011;65945;53.148;17.956;2023-11-21T03:54:32;16.40;;;8.40;;
77010;SDS011;65945;53.148;17.956;2023-11-21T03:56:58;11.10;;;6.30;;
77010;SDS011;65945;53.148;17.956;2023-11-21T03:59:25;20.40;;;10.90;;
77010;SDS011;65945;53.148;17.956;2023-11-21T04:01:52;8.80;;;5.90;;
77010;SDS011;65945;53.148;17.956;2023-11-21T04:04:22;18.40;;;8.20;;
77010;SDS011;65945;53.148;17.956;2023-11-21T04:06:49;16.80;;;8.60;;
77010;SDS011;65945;53.148;17.956;2023-11-21T04:09:18;23.00;;;11.00;;
77010;SDS011;65945;53.148;17.956;2023-11-21T04:11:44;14.50;;;7.20;;
77010;SDS011;65945;53.148;17.956;2023-11-21T04:14:12;17.10;;;8.40;;
77010;SDS011;65945;53.148;17.956;2023-11-21T04:16:39;12.60;;;5.80;;
77010;SDS011;65945;53.148;17.956;2023-11-21T04:19:07;20.20;;;10.00;;
77010;SDS011;65945;53.148;17.956;2023-11-21T04:21:34;21.10;;;9.60;;
77010;SDS011;65945;53.148;17.956;2023-11-21T04:24:00;15.90;;;6.50;;
77010;SDS011;65945;53.148;17.956;2023-11-21T04:26:27;14.20;;;6.90;;
77010;SDS011;65945;53.148;17.956;2023-11-21T04:28:54;18.50;;;8.70;;
77010;SDS011;65945;53.148;17.956;2023-11-21T04:31:20;13.90;;;7.90;;
77010;SDS011;65945;53.148;17.956;2023-11-21T04:33:47;19.10;;;10.00;;
77010;SDS011;65945;53.148;17.956;2023-11-21T04:36:14;13.40;;;6.90;;
77010;SDS011;65945;53.148;17.956;2023-11-21T04:38:40;16.60;;;7.40;;
77010;SDS011;65945;53.148;17.956;2023-11-21T04:41:07;19.30;;;7.80;;
77010;SDS011;65945;53.148;17.956;2023-11-21T04:43:34;17.90;;;8.60;;
77010;SDS011;65945;53.148;17.956;2023-11-21T04:46:01;18.40;;;9.10;;
77010;SDS011;65945;53.148;17.956;2023-11-21T04:48:28;18.60;;;8.90;;
77010;SDS011;65945;53.148;17.956;2023-11-21T04:50:55;22.40;;;10.20;;
77010;SDS011;65945;53.148;17.956;2023-11-21T04:53:22;21.20;;;11.70;;
77010;SDS011;65945;53.148;17.956;2023-11-21T04:55:49;18.80;;;9.10;;
77010;SDS011;65945;53.148;17.956;2023-11-21T04:58:15;18.90;;;9.30;;
77010;SDS011;65945;53.148;17.956;2023-11-21T05:00:42;15.30;;;7.60;;
77010;SDS011;65945;53.148;17.956;2023-11-21T05:03:09;19.30;;;9.10;;
77010;SDS011;65945;53.148;17.956;2023-11-21T05:05:36;16.00;;;7.80;;
77010;SDS011;65945;53.148;17.956;2023-11-21T05:08:02;17.10;;;8.30;;
77010;SDS011;65945;53.148;17.956;2023-11-21T05:10:30;14.80;;;7.10;;
77010;SDS011;65945;53.148;17.956;2023-11-21T05:12:56;20.00;;;8.20;;
77010;SDS011;65945;53.148;17.956;2023-11-21T05:15:23;15.30;;;7.30;;
77010;SDS011;65945;53.148;17.956;2023-11-21T05:17:51;15.20;;;7.40;;
77010;SDS011;65945;53.148;17.956;2023-11-21T05:20:18;14.80;;;7.20;;
77010;SDS011;65945;53.148;17.956;2023-11-21T05:22:47;17.40;;;8.20;;
77010;SDS011;65945;53.148;17.956;2023-11-21T05:25:17;19.20;;;9.50;;
77010;SDS011;65945;53.148;17.956;2023-11-21T05:27:46;18.40;;;9.00;;
77010;SDS011;65945;53.148;17.956;2023-11-21T05:30:14;16.10;;;8.00;;
77010;SDS011;65945;53.148;17.956;2023-11-21T05:32:40;14.50;;;7.40;;
77010;SDS011;65945;53.148;17.956;2023-11-21T05:35:10;13.90;;;6.90;;
77010;SDS011;65945;53.148;17.956;2023-11-21T05:37:42;15.40;;;7.00;;
77010;SDS011;65945;53.148;17.956;2023-11-21T05:40:09;13.40;;;5.90;;
77010;SDS011;65945;53.148;17.956;2023-11-21T05:42:36;15.60;;;7.40;;
77010;SDS011;65945;53.148;17.956;2023-11-21T05:45:04;16.00;;;7.10;;
77010;SDS011;65945;53.148;17.956;2023-11-21T05:47:38;15.80;;;8.00;;
77010;SDS011;65945;53.148;17.956;2023-11-21T05:50:10;21.70;;;8.10;;
77010;SDS011;65945;53.148;17.956;2023-11-21T05:52:41;17.70;;;7.90;;
77010;SDS011;65945;53.148;17.956;2023-11-21T05:55:11;24.00;;;10.90;;
77010;SDS011;65945;53.148;17.956;2023-11-21T05:57:39;21.30;;;9.70;;
77010;SDS011;65945;53.148;17.956;2023-11-21T06:00:11;21.10;;;9.60;;
77010;SDS011;65945;53.148;17.956;2023-11-21T06:02:52;18.70;;;9.10;;
77010;SDS011;65945;53.148;17.956;2023-11-21T06:05:20;16.10;;;7.90;;
77010;SDS011;65945;53.148;17.956;2023-11-21T06:07:55;21.20;;;8.80;;
77010;SDS011;65945;53.148;17.956;2023-11-21T06:10:25;21.10;;;10.50;;
77010;SDS011;65945;53.148;17.956;2023-11-21T06:12:52;17.90;;;9.70;;
77010;SDS011;65945;53.148;17.956;2023-11-21T06:15:19;23.50;;;10.40;;
77010;SDS011;65945;53.148;17.956;2023-11-21T06:17:47;22.50;;;10.90;;
77010;SDS011;65945;53.148;17.956;2023-11-21T06:20:18;15.50;;;8.10;;
77010;SDS011;65945;53.148;17.956;2023-11-21T06:22:46;13.90;;;6.80;;
77010;SDS011;65945;53.148;17.956;2023-11-21T06:25:14;16.60;;;7.00;;
77010;SDS011;65945;53.148;17.956;2023-11-21T06:27:42;16.70;;;7.20;;
77010;SDS011;65945;53.148;17.956;2023-11-21T06:30:14;18.40;;;8.10;;
77010;SDS011;65945;53.148;17.956;2023-11-21T06:32:42;17.50;;;8.50;;
77010;SDS011;65945;53.148;17.956;2023-11-21T06:35:12;19.70;;;10.40;;
77010;SDS011;65945;53.148;17.956;2023-11-21T06:37:39;14.00;;;6.60;;
77010;SDS011;65945;53.148;17.956;2023-11-21T06:40:06;20.20;;;10.40;;
77010;SDS011;65945;53.148;17.956;2023-11-21T06:42:34;22.50;;;10.00;;
77010;SDS011;65945;53.148;17.956;2023-11-21T06:45:00;18.90;;;8.40;;
77010;SDS011;65945;53.148;17.956;2023-11-21T06:47:30;23.30;;;11.60;;
77010;SDS011;65945;53.148;17.956;2023-11-21T06:49:57;17.10;;;7.70;;
77010;SDS011;65945;53.148;17.956;2023-11-21T06:52:24;17.50;;;7.70;;
77010;SDS011;65945;53.148;17.956;2023-11-21T06:54:51;24.00;;;10.20;;
77010;SDS011;65945;53.148;17.956;2023-11-21T06:57:17;24.70;;;11.10;;
77010;SDS011;65945;53.148;17.956;2023-11-21T06:59:45;25.60;;;10.90;;
77010;SDS011;65945;53.148;17.956;2023-11-21T07:02:11;19.30;;;9.50;;
77010;SDS011;65945;53.148;17.956;2023-11-21T07:04:38;16.30;;;7.30;;
77010;SDS011;65945;53.148;17.956;2023-11-21T07:07:06;17.80;;;7.60;;
77010;SDS011;65945;53.148;17.956;2023-11-21T07:09:33;23.80;;;10.70;;
77010;SDS011;65945;53.148;17.956;2023-11-21T07:12:00;15.00;;;7.20;;
77010;SDS011;65945;53.148;17.956;2023-11-21T07:14:28;16.40;;;6.90;;
77010;SDS011;65945;53.148;17.956;2023-11-21T07:16:54;13.00;;;6.70;;
77010;SDS011;65945;53.148;17.956;2023-11-21T07:19:21;15.80;;;7.60;;
77010;SDS011;65945;53.148;17.956;2023-11-21T07:21:48;12.20;;;6.40;;
77010;SDS011;65945;53.148;17.956;2023-11-21T07:24:17;13.30;;;6.10;;
77010;SDS011;65945;53.148;17.956;2023-11-21T07:26:44;21.60;;;9.20;;
77010;SDS011;65945;53.148;17.956;2023-11-21T07:29:10;10.30;;;5.10;;
77010;SDS011;65945;53.148;17.956;2023-11-21T07:31:38;12.80;;;6.90;;
77010;SDS011;65945;53.148;17.956;2023-11-21T07:34:04;13.20;;;6.50;;
77010;SDS011;65945;53.148;17.956;2023-11-21T07:36:31;15.80;;;6.90;;
77010;SDS011;65945;53.148;17.956;2023-11-21T07:38:58;12.90;;;6.80;;
77010;SDS011;65945;53.148;17.956;2023-11-21T07:41:24;8.60;;;4.80;;
77010;SDS011;65945;53.148;17.956;2023-11-21T07:43:51;11.70;;;5.10;;
77010;SDS011;65945;53.148;17.956;2023-11-21T07:46:17;13.90;;;6.60;;
77010;SDS011;65945;53.148;17.956;2023-11-21T07:48:44;11.60;;;5.30;;
77010;SDS011;65945;53.148;17.956;2023-11-21T07:51:12;9.70;;;5.20;;
77010;SDS011;65945;53.148;17.956;2023-11-21T07:53:39;11.30;;;5.00;;
77010;SDS011;65945;53.148;17.956;2023-11-21T07:56:06;15.20;;;6.00;;
77010;SDS011;65945;53.148;17.956;2023-11-21T07:58:35;16.50;;;6.90;;
77010;SDS011;65945;53.148;17.956;2023-11-21T08:01:02;12.10;;;5.90;;
77010;SDS011;65945;53.148;17.956;2023-11-21T08:03:30;19.20;;;7.80;;
77010;SDS011;65945;53.148;17.956;2023-11-21T08:05:57;17.50;;;6.20;;
77010;SDS011;65945;53.148;17.956;2023-11-21T08:08:25;19.00;;;7.90;;
77010;SDS011;65945;53.148;17.956;2023-11-21T08:10:52;13.50;;;7.20;;
77010;SDS011;65945;53.148;17.956;2023-11-21T08:13:28;16.40;;;7.00;;
77010;SDS011;65945;53.148;17.956;2023-11-21T08:15:57;16.10;;;7.30;;
77010;SDS011;65945;53.148;17.956;2023-11-21T08:18:28;14.10;;;6.10;;
77010;SDS011;65945;53.148;17.956;2023-11-21T08:20:56;14.00;;;6.20;;
77010;SDS011;65945;53.148;17.956;2023-11-21T08:23:23;13.60;;;6.40;;
77010;SDS011;65945;53.148;17.956;2023-11-21T08:25:53;15.20;;;6.60;;
77010;SDS011;65945;53.148;17.956;2023-11-21T08:28:20;12.50;;;5.20;;
77010;SDS011;65945;53.148;17.956;2023-11-21T08:30:52;14.00;;;6.70;;
77010;SDS011;65945;53.148;17.956;2023-11-21T08:33:20;10.00;;;5.20;;
77010;SDS011;65945;53.148;17.956;2023-11-21T08:35:47;13.50;;;6.00;;
77010;SDS011;65945;53.148;17.956;2023-11-21T08:38:15;12.70;;;4.50;;
77010;SDS011;65945;53.148;17.956;2023-11-21T08:40:41;13.60;;;3.80;;
77010;SDS011;65945;53.148;17.956;2023-11-21T08:43:08;9.00;;;4.20;;
77010;SDS011;65945;53.148;17.956;2023-11-21T08:45:35;6.30;;;3.50;;
77010;SDS011;65945;53.148;17.956;2023-11-21T08:48:02;10.20;;;4.00;;
77010;SDS011;65945;53.148;17.956;2023-11-21T08:50:29;8.40;;;4.00;;
77010;SDS011;65945;53.148;17.956;2023-11-21T08:52:55;11.60;;;4.90;;
77010;SDS011;65945;53.148;17.956;2023-11-21T08:55:22;11.00;;;4.80;;
77010;SDS011;65945;53.148;17.956;2023-11-21T08:57:49;12.80;;;5.80;;
77010;SDS011;65945;53.148;17.956;2023-11-21T09:00:16;29.40;;;12.80;;
77010;SDS011;65945;53.148;17.956;2023-11-21T09:02:45;35.60;;;17.10;;
77010;SDS011;65945;53.148;17.956;2023-11-21T09:05:14;23.70;;;11.70;;
77010;SDS011;65945;53.148;17.956;2023-11-21T09:07:42;16.30;;;7.30;;
77010;SDS011;65945;53.148;17.956;2023-11-21T09:10:09;13.80;;;6.70;;
77010;SDS011;65945;53.148;17.956;2023-11-21T09:12:36;9.80;;;5.30;;
77010;SDS011;65945;53.148;17.956;2023-11-21T09:15:07;9.90;;;4.70;;
77010;SDS011;65945;53.148;17.956;2023-11-21T09:17:36;9.70;;;4.50;;
77010;SDS011;65945;53.148;17.956;2023-11-21T09:20:03;10.20;;;4.50;;
77010;SDS011;65945;53.148;17.956;2023-11-21T09:22:32;10.20;;;5.40;;
77010;SDS011;65945;53.148;17.956;2023-11-21T09:24:59;10.20;;;4.60;;
77010;SDS011;65945;53.148;17.956;2023-11-21T09:27:25;17.80;;;6.80;;
77010;SDS011;65945;53.148;17.956;2023-11-21T09:29:52;8.90;;;4.40;;
77010;SDS011;65945;53.148;17.956;2023-11-21T09:32:19;9.40;;;4.30;;
77010;SDS011;65945;53.148;17.956;2023-11-21T09:34:48;7.30;;;4.20;;
77010;SDS011;65945;53.148;17.956;2023-11-21T09:37:15;9.60;;;4.10;;
77010;SDS011;65945;53.148;17.956;2023-11-21T09:39:42;6.80;;;3.70;;
77010;SDS011;65945;53.148;17.956;2023-11-21T09:42:12;11.10;;;5.40;;
77010;SDS011;65945;53.148;17.956;2023-11-21T09:47:35;6.60;;;4.00;;
77010;SDS011;65945;53.148;17.956;2023-11-21T09:50:05;11.20;;;5.20;;
77010;SDS011;65945;53.148;17.956;2023-11-21T09:52:43;10.90;;;5.30;;
77010;SDS011;65945;53.148;17.956;2023-11-21T09:55:24;11.10;;;5.00;;
77010;SDS011;65945;53.148;17.956;2023-11-21T09:57:56;10.80;;;5.00;;
77010;SDS011;65945;53.148;17.956;2023-11-21T10:00:23;11.80;;;4.40;;
77010;SDS011;65945;53.148;17.956;2023-11-21T10:02:51;19.20;;;8.00;;
77010;SDS011;65945;53.148;17.956;2023-11-21T10:05:21;9.60;;;4.80;;
77010;SDS011;65945;53.148;17.956;2023-11-21T10:07:49;7.80;;;3.90;;
77010;SDS011;65945;53.148;17.956;2023-11-21T10:10:18;8.80;;;4.60;;
77010;SDS011;65945;53.148;17.956;2023-11-21T10:12:47;9.90;;;5.10;;
77010;SDS011;65945;53.148;17.956;2023-11-21T10:15:21;12.70;;;5.40;;
77010;SDS011;65945;53.148;17.956;2023-11-21T10:17:49;12.10;;;6.10;;
77010;SDS011;65945;53.148;17.956;2023-11-21T10:20:16;11.10;;;5.90;;
77010;SDS011;65945;53.148;17.956;2023-11-21T10:22:43;10.50;;;5.00;;
77010;SDS011;65945;53.148;17.956;2023-11-21T10:25:10;11.10;;;5.60;;
77010;SDS011;65945;53.148;17.956;2023-11-21T10:27:37;10.40;;;4.90;;
77010;SDS011;65945;53.148;17.956;2023-11-21T10:30:06;10.60;;;5.40;;
77010;SDS011;65945;53.148;17.956;2023-11-21T10:32:41;10.50;;;5.20;;
77010;SDS011;65945;53.148;17.956;2023-11-21T10:35:08;9.80;;;4.90;;
77010;SDS011;65945;53.148;17.956;2023-11-21T10:37:38;9.10;;;4.20;;
77010;SDS011;65945;53.148;17.956;2023-11-21T10:40:09;10.40;;;5.00;;
77010;SDS011;65945;53.148;17.956;2023-11-21T10:42:40;9.20;;;5.10;;
77010;SDS011;65945;53.148;17.956;2023-11-21T10:45:08;9.70;;;4.90;;
77010;SDS011;65945;53.148;17.956;2023-11-21T10:47:40;10.50;;;4.50;;
77010;SDS011;65945;53.148;17.956;2023-11-21T10:50:08;15.60;;;8.20;;
77010;SDS011;65945;53.148;17.956;2023-11-21T10:52:39;16.40;;;7.00;;
77010;SDS011;65945;53.148;17.956;2023-11-21T10:55:16;15.40;;;5.10;;
77010;SDS011;65945;53.148;17.956;2023-11-21T10:57:46;12.40;;;5.60;;
77010;SDS011;65945;53.148;17.956;2023-11-21T11:00:15;12.20;;;5.20;;
77010;SDS011;65945;53.148;17.956;2023-11-21T11:02:51;10.20;;;5.00;;
77010;SDS011;65945;53.148;17.956;2023-11-21T11:05:21;10.70;;;4.90;;
77010;SDS011;65945;53.148;17.956;2023-11-21T11:08:01;12.70;;;6.50;;
77010;SDS011;65945;53.148;17.956;2023-11-21T11:10:34;9.80;;;4.80;;
77010;SDS011;65945;53.148;17.956;2023-11-21T11:13:01;12.30;;;5.00;;
77010;SDS011;65945;53.148;17.956;2023-11-21T11:15:29;14.00;;;6.50;;
77010;SDS011;65945;53.148;17.956;2023-11-21T11:17:55;10.70;;;5.00;;
77010;SDS011;65945;53.148;17.956;2023-11-21T11:20:24;7.90;;;3.30;;
77010;SDS011;65945;53.148;17.956;2023-11-21T11:22:59;13.90;;;5.50;;
77010;SDS011;65945;53.148;17.956;2023-11-21T11:28:19;12.30;;;5.00;;
77010;SDS011;65945;53.148;17.956;2023-11-21T11:34:00;10.80;;;5.00;;
77010;SDS011;65945;53.148;17.956;2023-11-21T11:36:44;8.70;;;4.40;;
77010;SDS011;65945;53.148;17.956;2023-11-21T11:39:30;9.50;;;4.90;;
77010;SDS011;65945;53.148;17.956;2023-11-21T11:42:03;14.10;;;8.60;;
77010;SDS011;65945;53.148;17.956;2023-11-21T11:47:13;13.80;;;6.60;;
77010;SDS011;65945;53.148;17.956;2023-11-21T11:50:00;18.30;;;6.50;;
77010;SDS011;65945;53.148;17.956;2023-11-21T11:54:59;15.40;;;5.50;;
77010;SDS011;65945;53.148;17.956;2023-11-21T11:57:26;9.90;;;4.50;;
77010;SDS011;65945;53.148;17.956;2023-11-21T12:00:14;11.20;;;4.60;;
77010;SDS011;65945;53.148;17.956;2023-11-21T12:02:56;13.00;;;6.10;;
77010;SDS011;65945;53.148;17.956;2023-11-21T12:05:25;14.10;;;4.40;;
77010;SDS011;65945;53.148;17.956;2023-11-21T12:08:00;12.50;;;5.80;;
77010;SDS011;65945;53.148;17.956;2023-11-21T12:10:30;9.20;;;4.40;;
77010;SDS011;65945;53.148;17.956;2023-11-21T12:15:31;14.20;;;6.00;;
77010;SDS011;65945;53.148;17.956;2023-11-21T12:17:58;15.00;;;6.90;;
77010;SDS011;65945;53.148;17.956;2023-11-21T12:20:25;18.60;;;7.80;;
77010;SDS011;65945;53.148;17.956;2023-11-21T12:22:54;18.40;;;7.30;;
77010;SDS011;65945;53.148;17.956;2023-11-21T12:25:22;14.30;;;6.20;;
77010;SDS011;65945;53.148;17.956;2023-11-21T12:28:00;13.40;;;6.00;;
77010;SDS011;65945;53.148;17.956;2023-11-21T12:30:29;12.90;;;6.60;;
77010;SDS011;65945;53.148;17.956;2023-11-21T12:32:58;16.40;;;8.30;;
77010;SDS011;65945;53.148;17.956;2023-11-21T12:35:30;13.90;;;7.20;;
77010;SDS011;65945;53.148;17.956;2023-11-21T12:38:02;12.80;;;4.60;;
77010;SDS011;65945;53.148;17.956;2023-11-21T12:40:29;8.80;;;4.10;;
77010;SDS011;65945;53.148;17.956;2023-11-21T12:42:56;15.80;;;8.60;;
77010;SDS011;65945;53.148;17.956;2023-11-21T12:45:25;10.40;;;4.40;;
77010;SDS011;65945;53.148;17.956;2023-11-21T12:47:55;11.50;;;6.10;;
77010;SDS011;65945;53.148;17.956;2023-11-21T12:50:27;13.00;;;5.70;;
77010;SDS011;65945;53.148;17.956;2023-11-21T12:53:01;13.60;;;7.50;;
77010;SDS011;65945;53.148;17.956;2023-11-21T12:55:34;14.30;;;7.20;;
77010;SDS011;65945;53.148;17.956;2023-11-21T12:58:06;22.20;;;10.20;;
77010;SDS011;65945;53.148;17.956;2023-11-21T13:00:38;22.10;;;8.90;;
77010;SDS011;65945;53.148;17.956;2023-11-21T13:03:09;28.90;;;11.70;;
77010;SDS011;65945;53.148;17.956;2023-11-21T13:05:39;17.10;;;7.30;;
77010;SDS011;65945;53.148;17.956;2023-11-21T13:08:11;14.70;;;6.30;;
77010;SDS011;65945;53.148;17.956;2023-11-21T13:10:39;20.40;;;7.90;;
77010;SDS011;65945;53.148;17.956;2023-11-21T13:13:10;12.70;;;5.70;;
77010;SDS011;65945;53.148;17.956;2023-11-21T13:15:53;12.70;;;5.40;;
77010;SDS011;65945;53.148;17.956;2023-11-21T13:18:25;12.90;;;6.10;;
77010;SDS011;65945;53.148;17.956;2023-11-21T13:20:54;8.50;;;4.00;;
77010;SDS011;65945;53.148;17.956;2023-11-21T13:23:22;9.10;;;4.80;;
77010;SDS011;65945;53.148;17.956;2023-11-21T13:25:50;8.50;;;3.90;;
77010;SDS011;65945;53.148;17.956;2023-11-21T13:28:17;10.10;;;4.80;;
77010;SDS011;65945;53.148;17.956;2023-11-21T13:30:47;10.80;;;4.20;;
77010;SDS011;65945;53.148;17.956;2023-11-21T13:33:14;10.50;;;4.80;;
77010;SDS011;65945;53.148;17.956;2023-11-21T13:35:48;7.50;;;3.60;;
77010;SDS011;65945;53.148;17.956;2023-11-21T13:38:17;10.10;;;5.30;;
77010;SDS011;65945;53.148;17.956;2023-11-21T13:40:50;7.90;;;4.50;;
77010;SDS011;65945;53.148;17.956;2023-11-21T13:43:22;9.00;;;3.90;;
77010;SDS011;65945;53.148;17.956;2023-11-21T13:45:55;11.70;;;5.30;;
77010;SDS011;65945;53.148;17.956;2023-11-21T13:48:33;11.20;;;5.20;;
77010;SDS011;65945;53.148;17.956;2023-11-21T13:51:14;11.40;;;4.80;;
77010;SDS011;65945;53.148;17.956;2023-11-21T13:53:46;13.40;;;6.50;;
77010;SDS011;65945;53.148;17.956;2023-11-21T13:56:16;9.20;;;4.60;;
77010;SDS011;65945;53.148;17.956;2023-11-21T13:58:47;13.20;;;5.60;;
77010;SDS011;65945;53.148;17.956;2023-11-21T14:01:18;11.10;;;5.80;;
77010;SDS011;65945;53.148;17.956;2023-11-21T14:03:51;20.70;;;7.40;;
77010;SDS011;65945;53.148;17.956;2023-11-21T14:06:26;12.50;;;4.30;;
77010;SDS011;65945;53.148;17.956;2023-11-21T14:09:01;10.70;;;4.60;;
77010;SDS011;65945;53.148;17.956;2023-11-21T14:11:32;8.70;;;4.10;;
77010;SDS011;65945;53.148;17.956;2023-11-21T14:14:00;10.60;;;5.00;;
77010;SDS011;65945;53.148;17.956;2023-11-21T14:16:28;16.10;;;5.80;;
77010;SDS011;65945;53.148;17.956;2023-11-21T14:18:54;9.90;;;3.60;;
77010;SDS011;65945;53.148;17.956;2023-11-21T14:21:45;7.20;;;3.40;;
77010;SDS011;65945;53.148;17.956;2023-11-21T14:24:12;7.40;;;3.30;;
77010;SDS011;65945;53.148;17.956;2023-11-21T14:26:40;10.40;;;5.20;;
77010;SDS011;65945;53.148;17.956;2023-11-21T14:29:08;12.90;;;5.20;;
77010;SDS011;65945;53.148;17.956;2023-11-21T14:31:38;10.50;;;4.00;;
77010;SDS011;65945;53.148;17.956;2023-11-21T14:34:05;10.70;;;4.70;;
77010;SDS011;65945;53.148;17.956;2023-11-21T14:36:33;11.50;;;6.00;;
77010;SDS011;65945;53.148;17.956;2023-11-21T14:39:01;14.30;;;6.30;;
77010;SDS011;65945;53.148;17.956;2023-11-21T14:41:28;14.50;;;5.40;;
77010;SDS011;65945;53.148;17.956;2023-11-21T14:43:55;10.90;;;5.00;;
77010;SDS011;65945;53.148;17.956;2023-11-21T14:46:23;16.40;;;6.30;;
77010;SDS011;65945;53.148;17.956;2023-11-21T14:48:50;9.60;;;3.80;;